.
WxDataArchive / Data Records for 2015-07-30
2015-07-29 July 2015 2015-07-31

Data Records for Thursday, 30 July 2015

Time	Temp	Chill	HIndex	Humid	Dewpt	 Wind 	HiWind	WindDir	Rain 	Barom
-----	----	-----	------	-----	-----	------	------	-------	-----	-----
00:00	68.8	68.8	68.8	75	60.5	0	0	---	0.00	29.937 
00:05	68.4	68.4	68.4	76	60.5	0	0	---	0.00	29.937 
00:10	68.4	68.4	68.4	77	60.9	0	0	---	0.00	29.937 
00:15	68.3	68.3	68.3	78	61.2	0	0	---	0.00	29.940 
00:20	68.3	68.3	68.3	78	61.2	0	0	---	0.00	29.940 
00:25	68.1	68.1	68.1	78	61.0	0	0	---	0.00	29.940 
00:30	67.9	67.9	67.9	79	61.1	0	0	---	0.00	29.942 
00:35	67.8	67.8	67.8	79	61.0	0	0	---	0.00	29.942 
00:40	67.6	67.6	67.6	79	60.8	0	0	---	0.00	29.942 
00:45	67.4	67.4	67.4	80	61.0	0	0	---	0.00	29.944 
00:50	67.3	67.3	67.3	80	60.9	0	0	---	0.00	29.944 
00:55	67.1	67.1	67.1	79	60.4	0	0	---	0.00	29.944 
01:00	67.1	67.1	67.1	79	60.4	0	0	---	0.00	29.945 
01:05	66.9	66.9	66.9	79	60.2	0	0	---	0.00	29.945 
01:10	66.9	66.9	66.9	79	60.2	0	0	---	0.00	29.945 
01:15	66.8	66.8	66.8	79	60.1	0	0	---	0.00	29.944 
01:20	66.8	66.8	66.8	78	59.7	0	0	---	0.00	29.944 
01:25	66.6	66.6	66.6	78	59.5	0	0	---	0.00	29.944 
01:30	66.6	66.6	66.6	78	59.5	0	0	---	0.00	29.941 
01:35	66.4	66.4	66.4	78	59.3	0	0	---	0.00	29.941 
01:40	66.4	66.4	66.4	78	59.3	0	0	---	0.00	29.941 
01:45	66.4	66.4	66.4	78	59.3	0	0	---	0.00	29.941 
01:50	66.3	66.3	66.3	78	59.2	0	0	---	0.00	29.941 
01:55	66.3	66.3	66.3	77	58.9	0	0	---	0.00	29.941 
02:00	66.4	66.4	66.4	77	59.0	0	0	---	0.00	29.938 
02:05	66.4	66.4	66.4	77	59.0	0	0	---	0.00	29.938 
02:10	66.4	66.4	66.4	76	58.6	0	0	---	0.00	29.938 
02:15	66.4	66.4	66.4	77	59.0	0	0	---	0.00	29.939 
02:20	66.6	66.6	66.6	77	59.2	0	0	---	0.00	29.939 
02:25	66.6	66.6	66.6	76	58.8	0	0	---	0.00	29.939 
02:30	66.4	66.4	66.4	77	59.0	0	0	---	0.00	29.935 
02:35	66.4	66.4	66.4	77	59.0	0	0	---	0.00	29.935 
02:40	66.4	66.4	66.4	77	59.0	0	0	---	0.00	29.935 
02:45	66.4	66.4	66.4	77	59.0	0	0	---	0.00	29.932 
02:50	66.3	66.3	66.3	77	58.9	0	0	---	0.00	29.932 
02:55	66.3	66.3	66.3	78	59.2	0	0	---	0.00	29.932 
03:00	66.3	66.3	66.3	78	59.2	0	0	---	0.00	29.930 
03:05	66.3	66.3	66.3	78	59.2	0	0	---	0.00	29.930 
03:10	66.1	66.1	66.1	78	59.0	0	0	---	0.00	29.930 
03:15	66.1	66.1	66.1	78	59.0	0	0	---	0.00	29.930 
03:20	66.1	66.1	66.1	78	59.0	0	0	---	0.00	29.930 
03:25	66.1	66.1	66.1	78	59.0	0	1	315	0.00	29.930 
03:30	66.3	66.3	66.3	78	59.2	0	0	---	0.00	29.930 
03:35	66.1	66.1	66.1	78	59.0	0	0	---	0.00	29.930 
03:40	66.1	66.1	66.1	78	59.0	0	1	315	0.00	29.930 
03:45	66.1	66.1	66.1	78	59.0	0	0	---	0.00	29.930 
03:50	66.1	66.1	66.1	78	59.0	0	0	---	0.00	29.930 
03:55	66.1	66.1	66.1	78	59.0	0	1	315	0.00	29.930 
04:00	66.1	66.1	66.1	78	59.0	0	1	315	0.00	29.931 
04:05	66.1	66.1	66.1	78	59.0	0	0	---	0.00	29.931 
04:10	66.1	66.1	66.1	77	58.7	0	1	315	0.00	29.931 
04:15	66.1	66.1	66.1	77	58.7	0	1	315	0.00	29.932 
04:20	66.1	66.1	66.1	77	58.7	0	1	315	0.00	29.932 
04:25	66.1	66.1	66.1	77	58.7	0	1	315	0.00	29.932 
04:30	66.0	66.0	66.0	77	58.6	0	1	315	0.00	29.933 
04:35	66.0	66.0	66.0	77	58.6	0	1	315	0.00	29.933 
04:40	66.0	66.0	66.0	77	58.6	0	1	315	0.00	29.933 
04:45	66.0	66.0	66.0	77	58.6	0	1	315	0.00	29.934 
04:50	65.8	65.8	65.8	77	58.4	0	1	315	0.00	29.934 
04:55	65.8	65.8	65.8	77	58.4	0	1	315	0.00	29.934 
05:00	65.6	65.6	65.6	78	58.5	0	1	315	0.00	29.939 
05:05	65.6	65.6	65.6	78	58.5	0	1	315	0.00	29.939 
05:10	65.6	65.6	65.6	78	58.5	0	1	315	0.00	29.939 
05:15	65.6	65.6	65.6	77	58.2	0	1	315	0.00	29.939 
05:20	65.6	65.6	65.6	78	58.5	0	1	315	0.00	29.939 
05:25	65.6	65.6	65.6	78	58.5	0	1	315	0.00	29.939 
05:30	65.5	65.5	65.5	78	58.5	0	1	315	0.00	29.943 
05:35	65.5	65.5	65.5	78	58.5	0	1	315	0.00	29.943 
05:40	65.3	65.3	65.3	78	58.3	0	1	315	0.00	29.943 
05:45	65.2	65.2	65.2	78	58.2	0	1	315	0.00	29.947 
05:50	65.2	65.2	65.2	79	58.5	0	1	315	0.00	29.947 
05:55	65.0	65.0	65.0	79	58.3	0	1	315	0.00	29.947 
06:00	64.8	64.8	64.8	79	58.1	0	2	315	0.00	29.949 
06:05	64.7	64.7	64.7	80	58.4	0	2	315	0.00	29.949 
06:10	64.7	64.7	64.7	80	58.4	0	1	315	0.00	29.949 
06:15	64.7	64.7	64.7	80	58.4	0	1	315	0.00	29.951 
06:20	64.5	64.5	64.5	80	58.2	0	1	315	0.00	29.951 
06:25	64.5	64.5	64.5	80	58.2	0	1	315	0.00	29.951 
06:30	64.3	64.3	64.3	81	58.3	0	1	315	0.00	29.956 
06:35	64.3	64.3	64.3	81	58.3	0	1	315	0.00	29.956 
06:40	64.2	64.2	64.2	81	58.2	0	1	315	0.00	29.956 
06:45	64.2	64.2	64.2	81	58.2	0	1	315	0.00	29.963 
06:50	64.2	64.2	64.2	81	58.2	0	0	---	0.00	29.963 
06:55	64.0	64.0	64.0	81	58.0	0	1	315	0.00	29.963 
07:00	64.0	64.0	64.0	81	58.0	0	1	315	0.00	29.965 
07:05	64.2	64.2	64.2	81	58.2	0	1	315	0.00	29.965 
07:10	64.2	64.2	64.2	81	58.2	0	1	315	0.00	29.965 
07:15	64.2	64.2	64.2	82	58.6	0	1	315	0.00	29.970 
07:20	64.3	64.3	64.3	82	58.7	0	1	315	0.00	29.970 
07:25	64.3	64.3	64.3	82	58.7	0	0	---	0.00	29.970 
07:30	64.7	64.7	64.7	81	58.7	0	1	315	0.00	29.975 
07:35	64.8	64.8	64.8	81	58.8	0	1	315	0.00	29.975 
07:40	65.2	65.2	65.2	81	59.2	0	1	315	0.00	29.975 
07:45	65.5	65.5	65.5	80	59.2	0	1	315	0.00	29.980 
07:50	66.0	66.0	66.0	80	59.6	0	2	315	0.00	29.980 
07:55	66.3	66.3	66.3	79	59.6	0	1	315	0.00	29.980 
08:00	66.8	66.8	66.8	77	59.3	1	3	315	0.00	29.978 
08:05	67.1	67.1	67.1	77	59.6	0	2	315	0.00	29.978 
08:10	67.6	67.6	67.6	76	59.8	1	4	315	0.00	29.978 
08:15	68.1	68.1	68.1	75	59.9	2	5	315	0.00	29.980 
08:20	68.6	68.6	68.6	73	59.6	2	4	292	0.00	29.980 
08:25	68.9	68.9	68.9	73	59.9	2	4	292	0.00	29.980 
08:30	69.4	69.4	69.4	72	60.0	2	6	292	0.00	29.981 
08:35	69.9	69.9	69.9	71	60.1	1	5	270	0.00	29.981 
08:40	70.1	70.1	70.1	70	59.8	2	5	315	0.00	29.981 
08:45	70.4	70.4	70.4	70	60.1	1	4	315	0.00	29.979 
08:50	70.8	70.8	70.8	69	60.1	1	5	315	0.00	29.979 
08:55	71.1	71.1	71.1	69	60.4	2	4	292	0.00	29.979 
09:00	71.3	71.3	71.3	68	60.2	2	5	270	0.00	29.984 
09:05	71.6	71.6	71.6	68	60.5	1	3	270	0.00	29.984 
09:10	72.0	72.0	72.0	67	60.4	2	5	270	0.00	29.984 
09:15	72.1	72.1	72.1	66	60.1	2	3	270	0.00	29.991 
09:20	72.5	72.5	72.5	66	60.5	1	4	270	0.00	29.991 
09:25	72.7	72.7	72.7	65	60.2	3	6	270	0.00	29.991 
09:30	72.7	72.7	72.7	66	60.7	2	5	338	0.00	29.991 
09:35	73.0	73.0	73.0	66	61.0	1	3	338	0.00	29.991 
09:40	73.2	73.2	73.2	64	60.3	2	5	292	0.00	29.991 
09:45	73.3	73.3	73.3	64	60.4	2	4	270	0.00	29.992 
09:50	73.7	73.7	73.7	63	60.3	2	5	292	0.00	29.992 
09:55	74.0	74.0	74.0	63	60.6	1	3	315	0.00	29.992 
10:00	74.4	74.4	74.4	63	61.0	2	4	292	0.00	29.986 
10:05	74.6	74.6	74.6	62	60.7	2	4	292	0.00	29.986 
10:10	74.9	74.9	74.9	62	61.0	1	4	315	0.00	29.986 
10:15	75.1	75.1	77.4	61	60.7	2	4	292	0.00	29.983 
10:20	75.4	75.4	77.5	62	61.5	1	3	292	0.00	29.983 
10:25	76.0	76.0	78.0	59	60.6	1	4	292	0.00	29.983 
10:30	76.1	76.1	78.1	60	61.2	2	6	292	0.00	29.983 
10:35	76.3	76.3	78.2	58	60.4	2	4	292	0.00	29.983 
10:40	76.5	76.5	78.4	57	60.1	1	3	292	0.00	29.983 
10:45	77.0	77.0	78.8	60	62.0	0	2	292	0.00	29.985 
10:50	77.4	77.4	79.1	59	61.9	1	4	292	0.00	29.985 
10:55	77.7	77.7	79.3	57	61.2	1	3	292	0.00	29.985 
11:00	77.9	77.9	79.4	55	60.4	2	4	270	0.00	29.983 
11:05	78.1	78.1	79.5	55	60.6	2	5	270	0.00	29.983 
11:10	78.3	78.3	79.7	54	60.3	2	5	270	0.00	29.983 
11:15	78.5	78.5	79.8	54	60.4	2	5	270	0.00	29.989 
11:20	78.6	78.6	79.9	54	60.5	1	3	270	0.00	29.989 
11:25	78.8	78.8	80.0	53	60.2	1	3	270	0.00	29.989 
11:30	79.2	79.2	80.3	52	60.0	2	4	270	0.00	29.992 
11:35	79.4	79.4	80.4	51	59.7	2	4	292	0.00	29.992 
11:40	79.6	79.6	80.6	52	60.4	2	4	292	0.00	29.992 
11:45	79.8	79.8	80.8	52	60.6	2	5	270	0.00	29.993 
11:50	79.9	79.9	80.7	50	59.6	2	4	292	0.00	29.993 
11:55	80.3	80.3	81.2	51	60.5	1	3	292	0.00	29.993 
12:00	80.5	80.5	81.0	48	59.0	2	5	292	0.00	29.993 
12:05	80.5	80.5	81.2	49	59.6	2	5	270	0.00	29.993 
12:10	80.7	80.7	80.9	45	57.4	3	5	270	0.00	29.993 
12:15	80.5	80.5	80.7	45	57.2	3	6	270	0.00	29.993 
12:20	80.5	80.5	80.7	45	57.2	2	5	292	0.00	29.993 
12:25	80.9	80.9	80.7	41	55.0	3	6	270	0.00	29.993 
12:30	80.7	80.7	80.4	40	54.1	3	5	315	0.00	29.990 
12:35	80.9	80.9	80.8	42	55.6	2	5	270	0.00	29.990 
12:40	81.1	81.1	80.8	41	55.1	3	5	292	0.00	29.990 
12:45	81.1	81.1	81.0	43	56.5	3	5	315	0.00	29.995 
12:50	81.4	81.4	81.5	45	58.0	2	6	270	0.00	29.995 
12:55	81.4	81.4	81.3	43	56.7	2	6	292	0.00	29.995 
13:00	81.2	81.2	81.0	42	55.9	3	6	292	0.00	29.992 
13:05	81.4	81.4	81.0	40	54.7	3	7	292	0.00	29.992 
13:10	81.4	81.4	81.1	41	55.4	3	6	292	0.00	29.992 
13:15	81.6	81.6	81.3	42	56.3	1	4	315	0.00	29.993 
13:20	81.8	81.8	81.4	41	55.8	3	6	270	0.00	29.993 
13:25	81.8	81.8	81.4	41	55.8	3	9	292	0.00	29.993 
13:30	81.8	81.8	81.4	41	55.8	3	7	292	0.00	29.996 
13:35	81.8	81.8	81.3	40	55.1	2	6	292	0.00	29.996 
13:40	81.6	81.6	81.1	40	54.9	3	6	338	0.00	29.996 
13:45	81.6	81.6	81.3	42	56.3	2	5	292	0.00	29.992 
13:50	82.2	82.2	81.7	41	56.1	3	6	292	0.00	29.992 
13:55	82.6	82.6	82.4	43	57.8	3	7	270	0.00	29.992 
14:00	82.4	82.4	82.2	43	57.6	3	6	292	0.00	29.992 
14:05	82.6	82.6	82.5	44	58.4	1	5	292	0.00	29.992 
14:10	82.8	82.8	82.4	42	57.3	3	9	270	0.00	29.992 
14:15	82.8	82.8	82.6	43	58.0	2	5	270	0.00	29.991 
14:20	82.8	82.8	82.6	43	58.0	2	7	292	0.00	29.991 
14:25	83.0	83.0	82.8	43	58.2	3	6	292	0.00	29.991 
14:30	83.0	83.0	82.6	42	57.5	2	4	292	0.00	29.986 
14:35	83.0	83.0	82.6	42	57.5	3	7	292	0.00	29.986 
14:40	82.8	82.8	82.4	42	57.3	3	6	270	0.00	29.986 
14:45	82.6	82.6	82.1	41	56.5	2	6	270	0.00	29.987 
14:50	82.8	82.8	82.4	42	57.3	3	6	270	0.00	29.987 
14:55	82.8	82.8	82.3	41	56.7	3	6	270	0.00	29.987 
15:00	83.0	83.0	82.2	39	55.5	3	6	270	0.00	29.984 
15:05	83.0	83.0	82.1	38	54.7	3	6	270	0.00	29.984 
15:10	82.8	82.8	82.0	39	55.3	3	7	315	0.00	29.984 
15:15	82.8	82.8	81.9	38	54.6	2	5	292	0.00	29.984 
15:20	83.0	83.0	82.1	38	54.7	2	5	315	0.00	29.984 
15:25	83.4	83.4	82.1	35	52.8	2	7	292	0.00	29.984 
15:30	83.4	83.4	82.2	36	53.6	3	5	270	0.00	29.981 
15:35	83.6	83.6	82.1	34	52.2	3	5	270	0.00	29.981 
15:40	83.8	83.8	82.4	35	53.2	3	6	270	0.00	29.981 
15:45	83.8	83.8	82.5	36	54.0	2	6	270	0.00	29.978 
15:50	83.8	83.8	82.4	35	53.2	3	6	292	0.00	29.978 
15:55	83.6	83.6	82.2	35	53.0	3	6	270	0.00	29.978 
16:00	83.8	83.8	82.3	34	52.4	2	5	338	0.00	29.978 
16:05	84.0	84.0	82.7	36	54.1	2	6	315	0.00	29.978 
16:10	84.1	84.1	82.7	35	53.5	3	5	270	0.00	29.978 
16:15	84.1	84.1	82.7	35	53.5	3	7	270	0.00	29.977 
16:20	84.1	84.1	82.7	35	53.5	3	7	292	0.00	29.977 
16:25	84.3	84.3	83.0	36	54.4	2	5	292	0.00	29.977 
16:30	84.5	84.5	82.9	34	53.0	2	5	292	0.00	29.972 
16:35	84.1	84.1	82.4	33	51.9	3	6	315	0.00	29.972 
16:40	83.8	83.8	82.1	32	50.8	4	10	315	0.00	29.972 
16:45	83.8	83.8	82.2	33	51.6	2	5	315	0.00	29.966 
16:50	84.1	84.1	82.5	34	52.7	2	4	270	0.00	29.966 
16:55	84.3	84.3	82.6	33	52.0	3	6	270	0.00	29.966 
17:00	84.1	84.1	82.3	32	51.0	3	7	270	0.00	29.970 
17:05	84.3	84.3	82.7	34	52.8	2	4	315	0.00	29.970 
17:10	84.3	84.3	82.7	34	52.8	2	5	292	0.00	29.970 
17:15	84.5	84.5	82.9	34	53.0	3	7	292	0.00	29.967 
17:20	84.1	84.1	82.4	33	51.9	3	6	292	0.00	29.967 
17:25	84.0	84.0	82.5	34	52.6	3	7	270	0.00	29.967 
17:30	84.3	84.3	82.6	33	52.0	2	5	270	0.00	29.967 
17:35	84.5	84.5	83.0	35	53.8	1	4	270	0.00	29.967 
17:40	84.5	84.5	82.9	34	53.0	3	6	270	0.00	29.967 
17:45	84.7	84.7	83.2	35	54.0	2	5	292	0.00	29.966 
17:50	84.3	84.3	82.9	35	53.6	3	6	292	0.00	29.966 
17:55	84.0	84.0	82.6	35	53.4	3	6	270	0.00	29.966 
18:00	84.0	84.0	82.8	37	54.9	2	7	292	0.00	29.967 
18:05	83.6	83.6	82.2	35	53.0	3	6	292	0.00	29.967 
18:10	83.4	83.4	82.3	37	54.4	3	6	270	0.00	29.967 
18:15	83.2	83.2	82.0	36	53.4	3	6	292	0.00	29.969 
18:20	83.0	83.0	81.8	36	53.3	2	5	270	0.00	29.969 
18:25	82.8	82.8	81.7	36	53.1	3	7	292	0.00	29.969 
18:30	82.6	82.6	81.5	36	52.9	4	7	292	0.00	29.967 
18:35	82.6	82.6	81.4	35	52.1	2	5	292	0.00	29.967 
18:40	82.4	82.4	81.2	35	52.0	3	9	292	0.00	29.967 
18:45	82.4	82.4	81.3	36	52.7	3	5	292	0.00	29.965 
18:50	82.4	82.4	81.3	36	52.7	3	7	270	0.00	29.965 
18:55	82.2	82.2	81.2	36	52.6	2	9	270	0.00	29.965 
19:00	82.2	82.2	81.2	36	52.6	3	5	292	0.00	29.964 
19:05	82.2	82.2	81.2	36	52.6	2	5	292	0.00	29.964 
19:10	82.0	82.0	81.0	36	52.4	2	5	270	0.00	29.964 
19:15	82.0	82.0	81.0	36	52.4	3	5	270	0.00	29.956 
19:20	81.8	81.8	80.8	35	51.4	2	5	292	0.00	29.956 
19:25	81.6	81.6	80.7	36	52.0	1	4	315	0.00	29.956 
19:30	81.6	81.6	80.8	37	52.8	2	4	270	0.00	29.956 
19:35	81.6	81.6	80.6	35	51.3	3	6	270	0.00	29.956 
19:40	81.4	81.4	80.6	36	51.9	1	3	270	0.00	29.956 
19:45	81.4	81.4	80.7	37	52.6	1	3	270	0.00	29.956 
19:50	81.4	81.4	80.7	37	52.6	1	3	270	0.00	29.956 
19:55	81.2	81.2	80.5	37	52.4	1	3	270	0.00	29.956 
20:00	81.2	81.2	80.6	38	53.1	0	3	270	0.00	29.956 
20:05	80.9	80.9	80.5	39	53.6	0	2	315	0.00	29.956 
20:10	80.7	80.7	80.3	39	53.4	0	1	315	0.00	29.956 
20:15	80.5	80.5	80.3	40	53.9	0	2	315	0.00	29.947 
20:20	80.3	80.3	80.1	40	53.8	0	1	315	0.00	29.947 
20:25	80.1	80.1	80.2	42	54.9	0	1	315	0.00	29.947 
20:30	79.8	79.8	80.0	43	55.3	0	0	---	0.00	29.950 
20:35	79.6	79.6	79.9	43	55.1	0	0	---	0.00	29.950 
20:40	79.2	79.2	79.6	43	54.7	0	0	---	0.00	29.950 
20:45	78.8	78.8	79.4	44	55.0	0	0	---	0.00	29.949 
20:50	78.5	78.5	79.3	45	55.4	0	0	---	0.00	29.949 
20:55	78.1	78.1	79.1	46	55.6	0	0	---	0.00	29.949 
21:00	77.6	77.6	78.8	47	55.8	0	0	---	0.00	29.950 
21:05	77.2	77.2	78.7	49	56.5	0	0	---	0.00	29.950 
21:10	76.7	76.7	78.4	50	56.6	0	0	---	0.00	29.950 
21:15	76.1	76.1	78.1	52	57.2	0	0	---	0.00	29.952 
21:20	75.6	75.6	77.9	52	56.7	0	0	---	0.00	29.952 
21:25	75.1	75.1	77.6	53	56.8	0	0	---	0.00	29.952 
21:30	74.6	74.6	74.6	54	56.8	0	0	---	0.00	29.958 
21:35	74.2	74.2	74.2	55	57.0	0	0	---	0.00	29.958 
21:40	73.9	73.9	73.9	55	56.7	0	0	---	0.00	29.958 
21:45	73.5	73.5	73.5	57	57.3	0	0	---	0.00	29.961 
21:50	73.0	73.0	73.0	57	56.9	0	0	---	0.00	29.961 
21:55	72.7	72.7	72.7	58	57.1	0	0	---	0.00	29.961 
22:00	72.5	72.5	72.5	58	56.9	0	0	---	0.00	29.965 
22:05	72.1	72.1	72.1	58	56.5	0	0	---	0.00	29.965 
22:10	72.1	72.1	72.1	58	56.5	0	0	---	0.00	29.965 
22:15	72.0	72.0	72.0	58	56.4	0	0	---	0.00	29.965 
22:20	72.0	72.0	72.0	58	56.4	0	0	---	0.00	29.965 
22:25	71.8	71.8	71.8	58	56.2	0	0	---	0.00	29.965 
22:30	71.8	71.8	71.8	59	56.7	0	0	---	0.00	29.966 
22:35	71.6	71.6	71.6	59	56.5	0	0	---	0.00	29.966 
22:40	71.5	71.5	71.5	59	56.4	0	0	---	0.00	29.966 
22:45	71.5	71.5	71.5	60	56.9	0	0	---	0.00	29.969 
22:50	71.3	71.3	71.3	61	57.1	0	0	---	0.00	29.969 
22:55	71.1	71.1	71.1	61	57.0	0	0	---	0.00	29.969 
23:00	70.9	70.9	70.9	61	56.8	0	0	---	0.00	29.972 
23:05	70.8	70.8	70.8	62	57.1	0	0	---	0.00	29.972 
23:10	70.6	70.6	70.6	62	56.9	0	0	---	0.00	29.972 
23:15	70.4	70.4	70.4	63	57.2	0	0	---	0.00	29.970 
23:20	70.3	70.3	70.3	63	57.1	0	0	---	0.00	29.970 
23:25	69.9	69.9	69.9	64	57.2	0	0	---	0.00	29.970 
23:30	69.8	69.8	69.8	65	57.5	0	0	---	0.00	29.969 
23:35	69.6	69.6	69.6	65	57.3	0	0	---	0.00	29.969 
23:40	69.6	69.6	69.6	65	57.3	0	0	---	0.00	29.969 
23:45	69.4	69.4	69.4	66	57.5	0	0	---	0.00	29.968 
23:50	69.3	69.3	69.3	66	57.4	0	0	---	0.00	29.968 
23:55	69.1	69.1	69.1	67	57.7	0	0	---	0.00	29.968 

CoCoRaHS
IN-AL-39
A2 Web Hosting
Creative Commons License
GoDaddy
search engine by freefind advanced

loaded 2018-11-15 03:24:32 • last modified 2010-11-18 10:43:29
Privacy PolicyDisclaimer
• wx.awcolley.com is powered by PmWiki v.2002016 •
• all content (unless otherwise noted) © 2018 A W Colley